sensor_id;sensor_type;location;lat;lon;timestamp;P1;durP1;ratioP1;P2;durP2;ratioP2
77055;SDS011;67471;44.918;8.614;2024-01-25T00:01:53;59.13;;;34.92;;
77055;SDS011;67471;44.918;8.614;2024-01-25T00:04:57;57.95;;;36.70;;
77055;SDS011;67471;44.918;8.614;2024-01-25T00:08:01;56.42;;;35.95;;
77055;SDS011;67471;44.918;8.614;2024-01-25T00:11:06;56.63;;;36.13;;
77055;SDS011;67471;44.918;8.614;2024-01-25T00:14:10;60.40;;;35.20;;
77055;SDS011;67471;44.918;8.614;2024-01-25T00:17:14;60.30;;;37.30;;
77055;SDS011;67471;44.918;8.614;2024-01-25T00:20:17;57.55;;;34.65;;
77055;SDS011;67471;44.918;8.614;2024-01-25T00:23:21;59.75;;;34.75;;
77055;SDS011;67471;44.918;8.614;2024-01-25T00:26:25;63.55;;;35.72;;
77055;SDS011;67471;44.918;8.614;2024-01-25T00:29:30;65.13;;;37.58;;
77055;SDS011;67471;44.918;8.614;2024-01-25T00:32:34;64.25;;;37.15;;
77055;SDS011;67471;44.918;8.614;2024-01-25T00:35:38;61.20;;;37.88;;
77055;SDS011;67471;44.918;8.614;2024-01-25T00:38:41;64.75;;;37.90;;
77055;SDS011;67471;44.918;8.614;2024-01-25T00:41:45;62.03;;;37.15;;
77055;SDS011;67471;44.918;8.614;2024-01-25T00:44:54;69.25;;;39.08;;
77055;SDS011;67471;44.918;8.614;2024-01-25T00:47:57;57.83;;;34.60;;
77055;SDS011;67471;44.918;8.614;2024-01-25T00:51:01;64.20;;;37.78;;
77055;SDS011;67471;44.918;8.614;2024-01-25T00:54:09;63.35;;;36.38;;
77055;SDS011;67471;44.918;8.614;2024-01-25T00:57:13;59.88;;;36.83;;
77055;SDS011;67471;44.918;8.614;2024-01-25T01:00:17;56.83;;;34.40;;
77055;SDS011;67471;44.918;8.614;2024-01-25T01:03:21;59.08;;;34.17;;
77055;SDS011;67471;44.918;8.614;2024-01-25T01:06:25;57.60;;;35.03;;
77055;SDS011;67471;44.918;8.614;2024-01-25T01:09:30;58.28;;;34.10;;
77055;SDS011;67471;44.918;8.614;2024-01-25T01:12:33;59.83;;;35.33;;
77055;SDS011;67471;44.918;8.614;2024-01-25T01:15:37;53.13;;;33.90;;
77055;SDS011;67471;44.918;8.614;2024-01-25T01:18:41;65.38;;;37.97;;
77055;SDS011;67471;44.918;8.614;2024-01-25T01:21:44;53.95;;;33.50;;
77055;SDS011;67471;44.918;8.614;2024-01-25T01:24:48;60.13;;;36.38;;
77055;SDS011;67471;44.918;8.614;2024-01-25T01:27:52;59.33;;;35.83;;
77055;SDS011;67471;44.918;8.614;2024-01-25T01:30:56;61.47;;;37.17;;
77055;SDS011;67471;44.918;8.614;2024-01-25T01:33:59;66.38;;;38.88;;
77055;SDS011;67471;44.918;8.614;2024-01-25T01:37:03;65.75;;;37.95;;
77055;SDS011;67471;44.918;8.614;2024-01-25T01:40:07;60.03;;;38.10;;
77055;SDS011;67471;44.918;8.614;2024-01-25T01:43:17;64.90;;;37.25;;
77055;SDS011;67471;44.918;8.614;2024-01-25T01:46:33;66.15;;;38.30;;
77055;SDS011;67471;44.918;8.614;2024-01-25T01:49:38;67.45;;;39.38;;
77055;SDS011;67471;44.918;8.614;2024-01-25T01:52:42;71.78;;;40.08;;
77055;SDS011;67471;44.918;8.614;2024-01-25T01:55:45;71.45;;;40.50;;
77055;SDS011;67471;44.918;8.614;2024-01-25T01:58:49;67.65;;;39.50;;
77055;SDS011;67471;44.918;8.614;2024-01-25T02:01:54;73.50;;;39.67;;
77055;SDS011;67471;44.918;8.614;2024-01-25T02:04:58;64.43;;;39.42;;
77055;SDS011;67471;44.918;8.614;2024-01-25T02:08:02;70.63;;;38.83;;
77055;SDS011;67471;44.918;8.614;2024-01-25T02:11:07;62.08;;;37.13;;
77055;SDS011;67471;44.918;8.614;2024-01-25T02:14:11;65.80;;;39.08;;
77055;SDS011;67471;44.918;8.614;2024-01-25T02:17:16;72.35;;;39.70;;
77055;SDS011;67471;44.918;8.614;2024-01-25T02:20:19;63.53;;;38.70;;
77055;SDS011;67471;44.918;8.614;2024-01-25T02:23:24;64.28;;;37.78;;
77055;SDS011;67471;44.918;8.614;2024-01-25T02:26:27;67.50;;;38.17;;
77055;SDS011;67471;44.918;8.614;2024-01-25T02:29:31;65.30;;;38.30;;
77055;SDS011;67471;44.918;8.614;2024-01-25T02:32:35;62.78;;;38.03;;
77055;SDS011;67471;44.918;8.614;2024-01-25T02:35:39;63.15;;;37.05;;
77055;SDS011;67471;44.918;8.614;2024-01-25T02:38:42;65.20;;;39.20;;
77055;SDS011;67471;44.918;8.614;2024-01-25T02:41:46;62.25;;;38.72;;
77055;SDS011;67471;44.918;8.614;2024-01-25T02:44:50;67.88;;;37.55;;
77055;SDS011;67471;44.918;8.614;2024-01-25T02:47:54;66.75;;;37.75;;
77055;SDS011;67471;44.918;8.614;2024-01-25T02:50:58;64.10;;;37.83;;
77055;SDS011;67471;44.918;8.614;2024-01-25T02:54:01;63.08;;;37.88;;
77055;SDS011;67471;44.918;8.614;2024-01-25T02:57:05;60.17;;;36.38;;
77055;SDS011;67471;44.918;8.614;2024-01-25T03:00:09;68.55;;;38.65;;
77055;SDS011;67471;44.918;8.614;2024-01-25T03:03:13;65.20;;;39.42;;
77055;SDS011;67471;44.918;8.614;2024-01-25T03:06:17;64.05;;;36.80;;
77055;SDS011;67471;44.918;8.614;2024-01-25T03:09:21;67.32;;;38.03;;
77055;SDS011;67471;44.918;8.614;2024-01-25T03:12:26;66.72;;;38.17;;
77055;SDS011;67471;44.918;8.614;2024-01-25T03:15:30;61.65;;;36.08;;
77055;SDS011;67471;44.918;8.614;2024-01-25T03:18:34;59.83;;;35.95;;
77055;SDS011;67471;44.918;8.614;2024-01-25T03:21:37;70.25;;;38.00;;
77055;SDS011;67471;44.918;8.614;2024-01-25T03:24:41;66.35;;;37.55;;
77055;SDS011;67471;44.918;8.614;2024-01-25T03:27:45;64.18;;;37.05;;
77055;SDS011;67471;44.918;8.614;2024-01-25T03:30:49;66.80;;;39.08;;
77055;SDS011;67471;44.918;8.614;2024-01-25T03:33:52;60.58;;;37.08;;
77055;SDS011;67471;44.918;8.614;2024-01-25T03:36:56;64.07;;;38.60;;
77055;SDS011;67471;44.918;8.614;2024-01-25T03:40:00;72.60;;;38.97;;
77055;SDS011;67471;44.918;8.614;2024-01-25T03:43:04;63.75;;;38.70;;
77055;SDS011;67471;44.918;8.614;2024-01-25T03:46:08;64.78;;;36.30;;
77055;SDS011;67471;44.918;8.614;2024-01-25T03:49:11;65.93;;;38.05;;
77055;SDS011;67471;44.918;8.614;2024-01-25T03:52:15;62.92;;;37.50;;
77055;SDS011;67471;44.918;8.614;2024-01-25T03:55:19;66.68;;;37.72;;
77055;SDS011;67471;44.918;8.614;2024-01-25T03:58:22;67.65;;;38.05;;
77055;SDS011;67471;44.918;8.614;2024-01-25T04:01:26;65.53;;;38.55;;
77055;SDS011;67471;44.918;8.614;2024-01-25T04:04:29;67.05;;;38.53;;
77055;SDS011;67471;44.918;8.614;2024-01-25T04:07:33;71.60;;;39.80;;
77055;SDS011;67471;44.918;8.614;2024-01-25T04:10:36;68.57;;;37.85;;
77055;SDS011;67471;44.918;8.614;2024-01-25T04:13:40;68.38;;;37.40;;
77055;SDS011;67471;44.918;8.614;2024-01-25T04:16:44;65.28;;;37.78;;
77055;SDS011;67471;44.918;8.614;2024-01-25T04:19:50;68.18;;;38.88;;
77055;SDS011;67471;44.918;8.614;2024-01-25T04:22:54;69.60;;;39.58;;
77055;SDS011;67471;44.918;8.614;2024-01-25T04:25:57;68.40;;;38.10;;
77055;SDS011;67471;44.918;8.614;2024-01-25T04:29:01;73.72;;;40.83;;
77055;SDS011;67471;44.918;8.614;2024-01-25T04:32:05;67.93;;;37.35;;
77055;SDS011;67471;44.918;8.614;2024-01-25T04:35:09;74.00;;;40.17;;
77055;SDS011;67471;44.918;8.614;2024-01-25T04:38:13;67.57;;;36.75;;
77055;SDS011;67471;44.918;8.614;2024-01-25T04:41:17;73.70;;;37.97;;
77055;SDS011;67471;44.918;8.614;2024-01-25T04:44:21;70.28;;;38.88;;
77055;SDS011;67471;44.918;8.614;2024-01-25T04:47:24;70.63;;;38.35;;
77055;SDS011;67471;44.918;8.614;2024-01-25T04:50:28;67.10;;;37.75;;
77055;SDS011;67471;44.918;8.614;2024-01-25T04:53:32;68.03;;;38.35;;
77055;SDS011;67471;44.918;8.614;2024-01-25T04:56:36;69.50;;;40.42;;
77055;SDS011;67471;44.918;8.614;2024-01-25T04:59:40;64.90;;;37.97;;
77055;SDS011;67471;44.918;8.614;2024-01-25T05:02:44;69.68;;;37.65;;
77055;SDS011;67471;44.918;8.614;2024-01-25T05:05:47;66.30;;;39.65;;
77055;SDS011;67471;44.918;8.614;2024-01-25T05:08:51;71.65;;;39.85;;
77055;SDS011;67471;44.918;8.614;2024-01-25T05:11:55;67.20;;;39.40;;
77055;SDS011;67471;44.918;8.614;2024-01-25T05:15:01;64.93;;;37.97;;
77055;SDS011;67471;44.918;8.614;2024-01-25T05:18:05;66.68;;;39.67;;
77055;SDS011;67471;44.918;8.614;2024-01-25T05:21:09;65.82;;;37.17;;
77055;SDS011;67471;44.918;8.614;2024-01-25T05:24:13;66.18;;;37.67;;
77055;SDS011;67471;44.918;8.614;2024-01-25T05:27:17;66.53;;;37.08;;
77055;SDS011;67471;44.918;8.614;2024-01-25T05:30:21;67.90;;;39.33;;
77055;SDS011;67471;44.918;8.614;2024-01-25T05:33:25;61.88;;;37.25;;
77055;SDS011;67471;44.918;8.614;2024-01-25T05:36:29;66.82;;;39.75;;
77055;SDS011;67471;44.918;8.614;2024-01-25T05:39:32;63.67;;;37.92;;
77055;SDS011;67471;44.918;8.614;2024-01-25T05:42:37;67.20;;;39.20;;
77055;SDS011;67471;44.918;8.614;2024-01-25T05:45:41;67.57;;;37.50;;
77055;SDS011;67471;44.918;8.614;2024-01-25T05:48:45;61.92;;;37.35;;
77055;SDS011;67471;44.918;8.614;2024-01-25T05:51:48;63.85;;;38.40;;
77055;SDS011;67471;44.918;8.614;2024-01-25T05:54:52;65.57;;;37.08;;
77055;SDS011;67471;44.918;8.614;2024-01-25T05:57:56;66.18;;;37.38;;
77055;SDS011;67471;44.918;8.614;2024-01-25T06:01:00;63.95;;;36.88;;
77055;SDS011;67471;44.918;8.614;2024-01-25T06:04:03;67.57;;;37.40;;
77055;SDS011;67471;44.918;8.614;2024-01-25T06:07:07;62.47;;;37.38;;
77055;SDS011;67471;44.918;8.614;2024-01-25T06:10:11;67.55;;;39.85;;
77055;SDS011;67471;44.918;8.614;2024-01-25T06:13:15;69.85;;;39.35;;
77055;SDS011;67471;44.918;8.614;2024-01-25T06:16:19;64.63;;;37.38;;
77055;SDS011;67471;44.918;8.614;2024-01-25T06:19:22;65.95;;;37.60;;
77055;SDS011;67471;44.918;8.614;2024-01-25T06:22:26;63.67;;;35.70;;
77055;SDS011;67471;44.918;8.614;2024-01-25T06:25:30;72.30;;;36.83;;
77055;SDS011;67471;44.918;8.614;2024-01-25T06:28:34;68.45;;;38.25;;
77055;SDS011;67471;44.918;8.614;2024-01-25T06:31:44;65.03;;;38.70;;
77055;SDS011;67471;44.918;8.614;2024-01-25T06:34:48;73.20;;;38.05;;
77055;SDS011;67471;44.918;8.614;2024-01-25T06:37:52;67.75;;;36.70;;
77055;SDS011;67471;44.918;8.614;2024-01-25T06:40:56;68.03;;;38.88;;
77055;SDS011;67471;44.918;8.614;2024-01-25T06:44:00;70.40;;;39.97;;
77055;SDS011;67471;44.918;8.614;2024-01-25T06:47:03;71.47;;;38.75;;
77055;SDS011;67471;44.918;8.614;2024-01-25T06:50:07;64.22;;;36.92;;
77055;SDS011;67471;44.918;8.614;2024-01-25T06:53:12;68.63;;;37.83;;
77055;SDS011;67471;44.918;8.614;2024-01-25T06:56:15;62.85;;;38.10;;
77055;SDS011;67471;44.918;8.614;2024-01-25T06:59:20;72.50;;;39.10;;
77055;SDS011;67471;44.918;8.614;2024-01-25T07:02:23;70.43;;;38.85;;
77055;SDS011;67471;44.918;8.614;2024-01-25T07:05:27;75.18;;;40.85;;
77055;SDS011;67471;44.918;8.614;2024-01-25T07:08:33;72.25;;;42.30;;
77055;SDS011;67471;44.918;8.614;2024-01-25T07:11:36;85.65;;;43.88;;
77055;SDS011;67471;44.918;8.614;2024-01-25T07:14:40;84.95;;;45.85;;
77055;SDS011;67471;44.918;8.614;2024-01-25T07:17:43;88.50;;;45.40;;
77055;SDS011;67471;44.918;8.614;2024-01-25T07:20:47;77.65;;;43.22;;
77055;SDS011;67471;44.918;8.614;2024-01-25T07:23:51;86.10;;;44.42;;
77055;SDS011;67471;44.918;8.614;2024-01-25T07:26:55;78.82;;;42.65;;
77055;SDS011;67471;44.918;8.614;2024-01-25T07:29:58;70.30;;;41.17;;
77055;SDS011;67471;44.918;8.614;2024-01-25T07:33:02;70.43;;;42.30;;
77055;SDS011;67471;44.918;8.614;2024-01-25T07:36:06;69.28;;;39.63;;
77055;SDS011;67471;44.918;8.614;2024-01-25T07:39:09;68.90;;;40.60;;
77055;SDS011;67471;44.918;8.614;2024-01-25T07:42:14;63.80;;;38.53;;
77055;SDS011;67471;44.918;8.614;2024-01-25T07:45:18;63.92;;;39.53;;
77055;SDS011;67471;44.918;8.614;2024-01-25T07:48:22;58.67;;;39.03;;
77055;SDS011;67471;44.918;8.614;2024-01-25T07:51:26;61.42;;;39.72;;
77055;SDS011;67471;44.918;8.614;2024-01-25T07:54:31;56.85;;;40.17;;
77055;SDS011;67471;44.918;8.614;2024-01-25T07:57:35;61.88;;;39.85;;
77055;SDS011;67471;44.918;8.614;2024-01-25T08:00:39;64.55;;;40.63;;
77055;SDS011;67471;44.918;8.614;2024-01-25T08:03:43;56.47;;;39.00;;
77055;SDS011;67471;44.918;8.614;2024-01-25T08:06:46;54.25;;;39.83;;
77055;SDS011;67471;44.918;8.614;2024-01-25T08:09:50;54.65;;;39.03;;
77055;SDS011;67471;44.918;8.614;2024-01-25T08:12:56;53.78;;;39.83;;
77055;SDS011;67471;44.918;8.614;2024-01-25T08:16:00;53.22;;;40.78;;
77055;SDS011;67471;44.918;8.614;2024-01-25T08:19:04;51.17;;;39.53;;
77055;SDS011;67471;44.918;8.614;2024-01-25T08:22:07;55.53;;;39.65;;
77055;SDS011;67471;44.918;8.614;2024-01-25T08:25:12;52.83;;;38.58;;
77055;SDS011;67471;44.918;8.614;2024-01-25T08:28:17;52.80;;;39.67;;
77055;SDS011;67471;44.918;8.614;2024-01-25T08:31:21;57.55;;;38.67;;
77055;SDS011;67471;44.918;8.614;2024-01-25T08:34:25;51.72;;;39.75;;
77055;SDS011;67471;44.918;8.614;2024-01-25T08:37:28;52.33;;;40.38;;
77055;SDS011;67471;44.918;8.614;2024-01-25T08:40:33;53.22;;;42.63;;
77055;SDS011;67471;44.918;8.614;2024-01-25T08:43:37;67.40;;;53.13;;
77055;SDS011;67471;44.918;8.614;2024-01-25T08:46:40;49.47;;;38.35;;
77055;SDS011;67471;44.918;8.614;2024-01-25T08:49:46;47.63;;;38.83;;
77055;SDS011;67471;44.918;8.614;2024-01-25T08:52:50;49.35;;;39.10;;
77055;SDS011;67471;44.918;8.614;2024-01-25T08:55:54;49.67;;;39.47;;
77055;SDS011;67471;44.918;8.614;2024-01-25T08:58:57;51.80;;;39.40;;
77055;SDS011;67471;44.918;8.614;2024-01-25T09:02:01;52.60;;;39.15;;
77055;SDS011;67471;44.918;8.614;2024-01-25T09:05:05;51.20;;;39.22;;
77055;SDS011;67471;44.918;8.614;2024-01-25T09:08:09;55.22;;;40.42;;
77055;SDS011;67471;44.918;8.614;2024-01-25T09:11:13;50.78;;;39.58;;
77055;SDS011;67471;44.918;8.614;2024-01-25T09:14:17;54.38;;;40.33;;
77055;SDS011;67471;44.918;8.614;2024-01-25T09:17:21;50.00;;;39.97;;
77055;SDS011;67471;44.918;8.614;2024-01-25T09:20:25;49.78;;;40.50;;
77055;SDS011;67471;44.918;8.614;2024-01-25T09:23:29;50.88;;;40.63;;
77055;SDS011;67471;44.918;8.614;2024-01-25T09:26:33;53.78;;;42.67;;
77055;SDS011;67471;44.918;8.614;2024-01-25T09:29:36;51.08;;;40.65;;
77055;SDS011;67471;44.918;8.614;2024-01-25T09:32:41;50.47;;;42.25;;
77055;SDS011;67471;44.918;8.614;2024-01-25T09:35:45;50.20;;;40.35;;
77055;SDS011;67471;44.918;8.614;2024-01-25T09:38:50;52.05;;;40.58;;
77055;SDS011;67471;44.918;8.614;2024-01-25T09:41:55;56.75;;;42.00;;
77055;SDS011;67471;44.918;8.614;2024-01-25T09:45:00;53.70;;;40.58;;
77055;SDS011;67471;44.918;8.614;2024-01-25T09:48:04;52.85;;;40.90;;
77055;SDS011;67471;44.918;8.614;2024-01-25T09:51:07;51.08;;;40.95;;
77055;SDS011;67471;44.918;8.614;2024-01-25T09:54:11;52.63;;;41.75;;
77055;SDS011;67471;44.918;8.614;2024-01-25T09:57:16;58.42;;;42.15;;
77055;SDS011;67471;44.918;8.614;2024-01-25T10:00:25;57.13;;;44.80;;
77055;SDS011;67471;44.918;8.614;2024-01-25T10:03:29;59.75;;;44.08;;
77055;SDS011;67471;44.918;8.614;2024-01-25T10:06:33;58.08;;;44.47;;
77055;SDS011;67471;44.918;8.614;2024-01-25T10:09:38;59.60;;;45.58;;
77055;SDS011;67471;44.918;8.614;2024-01-25T10:12:42;55.65;;;42.72;;
77055;SDS011;67471;44.918;8.614;2024-01-25T10:15:46;59.42;;;44.35;;
77055;SDS011;67471;44.918;8.614;2024-01-25T10:18:51;59.92;;;43.88;;
77055;SDS011;67471;44.918;8.614;2024-01-25T10:21:55;64.93;;;45.90;;
77055;SDS011;67471;44.918;8.614;2024-01-25T10:25:00;65.50;;;43.28;;
77055;SDS011;67471;44.918;8.614;2024-01-25T10:28:05;61.55;;;44.00;;
77055;SDS011;67471;44.918;8.614;2024-01-25T10:31:09;58.38;;;43.55;;
77055;SDS011;67471;44.918;8.614;2024-01-25T10:34:13;68.22;;;43.88;;
77055;SDS011;67471;44.918;8.614;2024-01-25T10:37:20;66.03;;;43.53;;
77055;SDS011;67471;44.918;8.614;2024-01-25T10:40:23;62.53;;;44.65;;
77055;SDS011;67471;44.918;8.614;2024-01-25T10:43:28;60.97;;;44.28;;
77055;SDS011;67471;44.918;8.614;2024-01-25T10:46:35;66.55;;;43.83;;
77055;SDS011;67471;44.918;8.614;2024-01-25T10:49:40;61.33;;;44.38;;
77055;SDS011;67471;44.918;8.614;2024-01-25T10:52:44;67.07;;;44.08;;
77055;SDS011;67471;44.918;8.614;2024-01-25T10:55:50;66.00;;;44.33;;
77055;SDS011;67471;44.918;8.614;2024-01-25T10:58:54;62.22;;;43.15;;
77055;SDS011;67471;44.918;8.614;2024-01-25T11:01:58;60.17;;;43.55;;
77055;SDS011;67471;44.918;8.614;2024-01-25T11:05:14;66.10;;;43.83;;
77055;SDS011;67471;44.918;8.614;2024-01-25T11:08:19;67.53;;;44.08;;
77055;SDS011;67471;44.918;8.614;2024-01-25T11:11:23;63.67;;;42.00;;
77055;SDS011;67471;44.918;8.614;2024-01-25T11:14:26;65.13;;;45.72;;
77055;SDS011;67471;44.918;8.614;2024-01-25T11:17:31;58.83;;;44.03;;
77055;SDS011;67471;44.918;8.614;2024-01-25T11:20:36;60.55;;;42.88;;
77055;SDS011;67471;44.918;8.614;2024-01-25T11:23:41;61.22;;;44.05;;
77055;SDS011;67471;44.918;8.614;2024-01-25T11:26:46;61.22;;;43.88;;
77055;SDS011;67471;44.918;8.614;2024-01-25T11:29:50;58.55;;;42.47;;
77055;SDS011;67471;44.918;8.614;2024-01-25T11:32:53;61.17;;;43.33;;
77055;SDS011;67471;44.918;8.614;2024-01-25T11:35:57;61.45;;;41.15;;
77055;SDS011;67471;44.918;8.614;2024-01-25T11:39:01;59.80;;;41.45;;
77055;SDS011;67471;44.918;8.614;2024-01-25T11:42:05;59.22;;;43.28;;
77055;SDS011;67471;44.918;8.614;2024-01-25T11:45:12;65.75;;;46.95;;
77055;SDS011;67471;44.918;8.614;2024-01-25T11:48:18;64.60;;;45.05;;
77055;SDS011;67471;44.918;8.614;2024-01-25T11:51:22;64.95;;;45.40;;
77055;SDS011;67471;44.918;8.614;2024-01-25T11:54:26;63.13;;;44.80;;
77055;SDS011;67471;44.918;8.614;2024-01-25T11:57:30;60.63;;;44.53;;
77055;SDS011;67471;44.918;8.614;2024-01-25T12:00:35;62.83;;;44.10;;
77055;SDS011;67471;44.918;8.614;2024-01-25T12:03:40;62.72;;;45.92;;
77055;SDS011;67471;44.918;8.614;2024-01-25T12:06:43;66.80;;;46.05;;
77055;SDS011;67471;44.918;8.614;2024-01-25T12:09:57;66.72;;;46.60;;
77055;SDS011;67471;44.918;8.614;2024-01-25T12:13:08;60.20;;;43.92;;
77055;SDS011;67471;44.918;8.614;2024-01-25T12:16:12;58.13;;;43.35;;
77055;SDS011;67471;44.918;8.614;2024-01-25T12:19:17;61.25;;;43.92;;
77055;SDS011;67471;44.918;8.614;2024-01-25T12:22:21;59.20;;;42.83;;
77055;SDS011;67471;44.918;8.614;2024-01-25T12:25:25;57.90;;;44.33;;
77055;SDS011;67471;44.918;8.614;2024-01-25T12:28:29;59.17;;;42.65;;
77055;SDS011;67471;44.918;8.614;2024-01-25T12:31:34;59.15;;;41.95;;
77055;SDS011;67471;44.918;8.614;2024-01-25T12:34:38;63.80;;;45.00;;
77055;SDS011;67471;44.918;8.614;2024-01-25T12:37:44;60.67;;;42.13;;
77055;SDS011;67471;44.918;8.614;2024-01-25T12:40:49;55.03;;;42.15;;
77055;SDS011;67471;44.918;8.614;2024-01-25T12:43:53;53.97;;;42.08;;
77055;SDS011;67471;44.918;8.614;2024-01-25T12:46:56;61.78;;;41.63;;
77055;SDS011;67471;44.918;8.614;2024-01-25T12:50:04;57.25;;;41.60;;
77055;SDS011;67471;44.918;8.614;2024-01-25T12:53:10;64.03;;;42.95;;
77055;SDS011;67471;44.918;8.614;2024-01-25T12:56:14;55.92;;;40.78;;
77055;SDS011;67471;44.918;8.614;2024-01-25T12:59:18;57.13;;;41.60;;
77055;SDS011;67471;44.918;8.614;2024-01-25T13:02:22;56.00;;;39.88;;
77055;SDS011;67471;44.918;8.614;2024-01-25T13:05:25;58.38;;;41.75;;
77055;SDS011;67471;44.918;8.614;2024-01-25T13:08:29;56.97;;;40.90;;
77055;SDS011;67471;44.918;8.614;2024-01-25T13:11:33;53.00;;;39.78;;
77055;SDS011;67471;44.918;8.614;2024-01-25T13:14:37;63.20;;;41.72;;
77055;SDS011;67471;44.918;8.614;2024-01-25T13:17:41;60.40;;;42.90;;
77055;SDS011;67471;44.918;8.614;2024-01-25T13:20:45;62.13;;;44.53;;
77055;SDS011;67471;44.918;8.614;2024-01-25T13:23:49;60.03;;;43.25;;
77055;SDS011;67471;44.918;8.614;2024-01-25T13:26:53;59.70;;;43.30;;
77055;SDS011;67471;44.918;8.614;2024-01-25T13:29:57;66.18;;;44.97;;
77055;SDS011;67471;44.918;8.614;2024-01-25T13:33:01;60.05;;;42.65;;
77055;SDS011;67471;44.918;8.614;2024-01-25T13:36:05;65.20;;;43.33;;
77055;SDS011;67471;44.918;8.614;2024-01-25T13:39:12;62.42;;;44.47;;
77055;SDS011;67471;44.918;8.614;2024-01-25T13:42:16;61.65;;;41.83;;
77055;SDS011;67471;44.918;8.614;2024-01-25T13:45:20;62.08;;;43.40;;
77055;SDS011;67471;44.918;8.614;2024-01-25T13:48:24;64.82;;;43.60;;
77055;SDS011;67471;44.918;8.614;2024-01-25T13:51:28;68.28;;;44.80;;
77055;SDS011;67471;44.918;8.614;2024-01-25T13:54:31;59.13;;;43.00;;
77055;SDS011;67471;44.918;8.614;2024-01-25T13:57:35;68.05;;;42.00;;
77055;SDS011;67471;44.918;8.614;2024-01-25T14:00:39;64.55;;;44.30;;
77055;SDS011;67471;44.918;8.614;2024-01-25T14:03:43;61.38;;;44.05;;
77055;SDS011;67471;44.918;8.614;2024-01-25T14:06:47;64.53;;;43.47;;
77055;SDS011;67471;44.918;8.614;2024-01-25T14:09:51;56.53;;;41.90;;
77055;SDS011;67471;44.918;8.614;2024-01-25T14:12:56;61.03;;;40.70;;
77055;SDS011;67471;44.918;8.614;2024-01-25T14:16:00;57.70;;;42.25;;
77055;SDS011;67471;44.918;8.614;2024-01-25T14:19:04;60.42;;;42.28;;
77055;SDS011;67471;44.918;8.614;2024-01-25T14:22:08;61.38;;;42.10;;
77055;SDS011;67471;44.918;8.614;2024-01-25T14:25:12;62.92;;;42.00;;
77055;SDS011;67471;44.918;8.614;2024-01-25T14:28:16;68.63;;;43.50;;
77055;SDS011;67471;44.918;8.614;2024-01-25T14:31:20;61.00;;;43.75;;
77055;SDS011;67471;44.918;8.614;2024-01-25T14:34:24;58.08;;;42.35;;
77055;SDS011;67471;44.918;8.614;2024-01-25T14:37:28;61.13;;;43.00;;
77055;SDS011;67471;44.918;8.614;2024-01-25T14:40:33;61.45;;;42.25;;
77055;SDS011;67471;44.918;8.614;2024-01-25T14:43:37;60.90;;;41.90;;
77055;SDS011;67471;44.918;8.614;2024-01-25T14:46:42;61.83;;;42.15;;
77055;SDS011;67471;44.918;8.614;2024-01-25T14:49:46;57.72;;;42.10;;
77055;SDS011;67471;44.918;8.614;2024-01-25T14:52:49;58.90;;;42.75;;
77055;SDS011;67471;44.918;8.614;2024-01-25T14:55:53;58.22;;;42.97;;
77055;SDS011;67471;44.918;8.614;2024-01-25T14:58:57;63.33;;;43.97;;
77055;SDS011;67471;44.918;8.614;2024-01-25T15:02:00;65.07;;;44.00;;
77055;SDS011;67471;44.918;8.614;2024-01-25T15:05:05;60.35;;;41.70;;
77055;SDS011;67471;44.918;8.614;2024-01-25T15:08:08;62.15;;;43.60;;
77055;SDS011;67471;44.918;8.614;2024-01-25T15:11:12;65.43;;;41.97;;
77055;SDS011;67471;44.918;8.614;2024-01-25T15:14:16;67.30;;;44.05;;
77055;SDS011;67471;44.918;8.614;2024-01-25T15:17:20;60.05;;;42.17;;
77055;SDS011;67471;44.918;8.614;2024-01-25T15:20:24;61.03;;;41.03;;
77055;SDS011;67471;44.918;8.614;2024-01-25T15:23:27;59.90;;;40.97;;
77055;SDS011;67471;44.918;8.614;2024-01-25T15:26:32;57.70;;;39.65;;
77055;SDS011;67471;44.918;8.614;2024-01-25T15:29:39;58.40;;;39.05;;
77055;SDS011;67471;44.918;8.614;2024-01-25T15:32:43;62.53;;;39.67;;
77055;SDS011;67471;44.918;8.614;2024-01-25T15:35:49;63.42;;;40.60;;
77055;SDS011;67471;44.918;8.614;2024-01-25T15:38:53;56.78;;;40.75;;
77055;SDS011;67471;44.918;8.614;2024-01-25T15:41:57;58.50;;;39.88;;
77055;SDS011;67471;44.918;8.614;2024-01-25T15:45:01;55.65;;;38.10;;
77055;SDS011;67471;44.918;8.614;2024-01-25T15:48:06;58.15;;;39.85;;
77055;SDS011;67471;44.918;8.614;2024-01-25T15:51:11;58.67;;;40.13;;
77055;SDS011;67471;44.918;8.614;2024-01-25T15:54:16;58.38;;;40.33;;
77055;SDS011;67471;44.918;8.614;2024-01-25T15:57:20;62.53;;;40.30;;
77055;SDS011;67471;44.918;8.614;2024-01-25T16:00:24;62.78;;;42.38;;
77055;SDS011;67471;44.918;8.614;2024-01-25T16:03:27;60.00;;;41.45;;
77055;SDS011;67471;44.918;8.614;2024-01-25T16:06:31;56.78;;;40.95;;
77055;SDS011;67471;44.918;8.614;2024-01-25T16:09:36;59.95;;;41.33;;
77055;SDS011;67471;44.918;8.614;2024-01-25T16:12:40;62.05;;;41.80;;
77055;SDS011;67471;44.918;8.614;2024-01-25T16:15:44;62.78;;;41.65;;
77055;SDS011;67471;44.918;8.614;2024-01-25T16:18:48;60.17;;;41.50;;
77055;SDS011;67471;44.918;8.614;2024-01-25T16:21:52;71.47;;;45.00;;
77055;SDS011;67471;44.918;8.614;2024-01-25T16:24:56;66.60;;;44.25;;
77055;SDS011;67471;44.918;8.614;2024-01-25T16:28:00;69.85;;;42.67;;
77055;SDS011;67471;44.918;8.614;2024-01-25T16:31:04;68.00;;;43.13;;
77055;SDS011;67471;44.918;8.614;2024-01-25T16:34:07;68.30;;;43.97;;
77055;SDS011;67471;44.918;8.614;2024-01-25T16:37:11;67.10;;;43.30;;
77055;SDS011;67471;44.918;8.614;2024-01-25T16:40:15;66.15;;;41.47;;
77055;SDS011;67471;44.918;8.614;2024-01-25T16:43:20;64.65;;;42.15;;
77055;SDS011;67471;44.918;8.614;2024-01-25T16:46:25;67.35;;;42.20;;
77055;SDS011;67471;44.918;8.614;2024-01-25T16:49:29;66.03;;;42.47;;
77055;SDS011;67471;44.918;8.614;2024-01-25T16:52:33;69.28;;;44.13;;
77055;SDS011;67471;44.918;8.614;2024-01-25T16:55:36;68.78;;;43.60;;
77055;SDS011;67471;44.918;8.614;2024-01-25T16:58:40;72.78;;;44.30;;
77055;SDS011;67471;44.918;8.614;2024-01-25T17:01:44;70.03;;;44.30;;
77055;SDS011;67471;44.918;8.614;2024-01-25T17:04:48;65.05;;;43.15;;
77055;SDS011;67471;44.918;8.614;2024-01-25T17:07:52;71.32;;;44.42;;
77055;SDS011;67471;44.918;8.614;2024-01-25T17:10:56;93.47;;;58.10;;
77055;SDS011;67471;44.918;8.614;2024-01-25T17:14:03;193.32;;;114.50;;
77055;SDS011;67471;44.918;8.614;2024-01-25T17:17:07;133.02;;;81.85;;
77055;SDS011;67471;44.918;8.614;2024-01-25T17:20:12;89.20;;;52.95;;
77055;SDS011;67471;44.918;8.614;2024-01-25T17:23:16;77.47;;;48.97;;
77055;SDS011;67471;44.918;8.614;2024-01-25T17:26:20;73.80;;;47.85;;
77055;SDS011;67471;44.918;8.614;2024-01-25T17:29:25;82.90;;;49.13;;
77055;SDS011;67471;44.918;8.614;2024-01-25T17:32:29;86.45;;;52.72;;
77055;SDS011;67471;44.918;8.614;2024-01-25T17:35:33;77.63;;;48.70;;
77055;SDS011;67471;44.918;8.614;2024-01-25T17:38:37;81.28;;;47.15;;
77055;SDS011;67471;44.918;8.614;2024-01-25T17:41:42;82.20;;;50.38;;
77055;SDS011;67471;44.918;8.614;2024-01-25T17:44:45;84.97;;;51.80;;
77055;SDS011;67471;44.918;8.614;2024-01-25T17:47:49;80.47;;;51.83;;
77055;SDS011;67471;44.918;8.614;2024-01-25T17:50:55;81.07;;;48.15;;
77055;SDS011;67471;44.918;8.614;2024-01-25T17:53:59;77.97;;;49.45;;
77055;SDS011;67471;44.918;8.614;2024-01-25T17:57:03;78.15;;;47.95;;